sensor_id;sensor_type;location;lat;lon;timestamp;pressure;altitude;pressure_sealevel;temperature;humidity
44765;BME280;30484;52.382;5.260;2022-12-04T00:01:26;102080.47;;;4.48;100.00
44765;BME280;30484;52.382;5.260;2022-12-04T00:03:58;102078.66;;;4.56;100.00
44765;BME280;30484;52.382;5.260;2022-12-04T00:06:32;102077.91;;;4.22;100.00
44765;BME280;30484;52.382;5.260;2022-12-04T00:09:02;102074.38;;;4.30;100.00
44765;BME280;30484;52.382;5.260;2022-12-04T00:11:32;102075.34;;;4.11;100.00
44765;BME280;30484;52.382;5.260;2022-12-04T00:14:02;102071.78;;;4.18;100.00
44765;BME280;30484;52.382;5.260;2022-12-04T00:16:33;102072.66;;;4.25;100.00
44765;BME280;30484;52.382;5.260;2022-12-04T00:19:05;102068.25;;;4.14;100.00
44765;BME280;30484;52.382;5.260;2022-12-04T00:21:34;102070.81;;;4.31;100.00
44765;BME280;30484;52.382;5.260;2022-12-04T00:24:04;102070.09;;;3.95;100.00
44765;BME280;30484;52.382;5.260;2022-12-04T00:26:34;102066.44;;;4.24;100.00
44765;BME280;30484;52.382;5.260;2022-12-04T00:29:04;102066.47;;;4.21;100.00
44765;BME280;30484;52.382;5.260;2022-12-04T00:31:35;102072.66;;;4.19;100.00
44765;BME280;30484;52.382;5.260;2022-12-04T00:34:06;102078.94;;;3.87;100.00
44765;BME280;30484;52.382;5.260;2022-12-04T00:36:35;102072.63;;;4.29;100.00
44765;BME280;30484;52.382;5.260;2022-12-04T00:39:05;102060.16;;;4.55;100.00
44765;BME280;30484;52.382;5.260;2022-12-04T00:41:35;102066.38;;;4.40;100.00
44765;BME280;30484;52.382;5.260;2022-12-04T00:44:04;102067.22;;;4.51;100.00
44765;BME280;30484;52.382;5.260;2022-12-04T00:46:34;102067.31;;;4.29;100.00
44765;BME280;30484;52.382;5.260;2022-12-04T00:49:05;102061.06;;;4.43;100.00
44765;BME280;30484;52.382;5.260;2022-12-04T00:51:34;102071.75;;;4.21;100.00
44765;BME280;30484;52.382;5.260;2022-12-04T00:54:03;102067.19;;;4.60;100.00
44765;BME280;30484;52.382;5.260;2022-12-04T00:56:32;102065.47;;;4.47;100.00
44765;BME280;30484;52.382;5.260;2022-12-04T00:59:01;102068.19;;;4.31;100.00
44765;BME280;30484;52.382;5.260;2022-12-04T01:01:30;102056.66;;;4.40;100.00
44765;BME280;30484;52.382;5.260;2022-12-04T01:03:59;102050.44;;;4.55;100.00
44765;BME280;30484;52.382;5.260;2022-12-04T01:06:32;102050.41;;;4.60;100.00
44765;BME280;30484;52.382;5.260;2022-12-04T01:09:05;102056.66;;;4.48;100.00
44765;BME280;30484;52.382;5.260;2022-12-04T01:11:34;102051.22;;;4.68;100.00
44765;BME280;30484;52.382;5.260;2022-12-04T01:14:03;102058.47;;;4.38;100.00
44765;BME280;30484;52.382;5.260;2022-12-04T01:16:35;102043.50;;;4.29;100.00
44765;BME280;30484;52.382;5.260;2022-12-04T01:19:08;102043.56;;;4.19;100.00
44765;BME280;30484;52.382;5.260;2022-12-04T01:21:42;102029.19;;;4.68;100.00
44765;BME280;30484;52.382;5.260;2022-12-04T01:24:10;102039.84;;;4.55;100.00
44765;BME280;30484;52.382;5.260;2022-12-04T01:26:39;102043.38;;;4.54;100.00
44765;BME280;30484;52.382;5.260;2022-12-04T01:29:08;102043.38;;;4.53;100.00
44765;BME280;30484;52.382;5.260;2022-12-04T01:31:37;102056.56;;;4.62;100.00
44765;BME280;30484;52.382;5.260;2022-12-04T01:34:06;102042.47;;;4.58;100.00
44765;BME280;30484;52.382;5.260;2022-12-04T01:36:41;102044.31;;;4.45;100.00
44765;BME280;30484;52.382;5.260;2022-12-04T01:39:10;102037.25;;;4.44;100.00
44765;BME280;30484;52.382;5.260;2022-12-04T01:41:39;102039.84;;;4.55;100.00
44765;BME280;30484;52.382;5.260;2022-12-04T01:44:13;102041.72;;;4.38;100.00
44765;BME280;30484;52.382;5.260;2022-12-04T01:46:44;102038.97;;;4.53;100.00
44765;BME280;30484;52.382;5.260;2022-12-04T01:49:17;102040.72;;;4.56;100.00
44765;BME280;30484;52.382;5.260;2022-12-04T01:51:51;102040.06;;;4.15;100.00
44765;BME280;30484;52.382;5.260;2022-12-04T01:54:25;102023.97;;;4.55;100.00
44765;BME280;30484;52.382;5.260;2022-12-04T01:57:01;102039.88;;;4.52;100.00
44765;BME280;30484;52.382;5.260;2022-12-04T01:59:34;102030.06;;;4.68;100.00
44765;BME280;30484;52.382;5.260;2022-12-04T02:02:10;102035.44;;;4.53;100.00
44765;BME280;30484;52.382;5.260;2022-12-04T02:04:43;102031.09;;;4.41;100.00
44765;BME280;30484;52.382;5.260;2022-12-04T02:07:13;102034.50;;;4.63;100.00
44765;BME280;30484;52.382;5.260;2022-12-04T02:09:42;102039.16;;;4.18;100.00
44765;BME280;30484;52.382;5.260;2022-12-04T02:12:19;102045.25;;;4.29;100.00
44765;BME280;30484;52.382;5.260;2022-12-04T02:14:59;102038.97;;;4.56;100.00
44765;BME280;30484;52.382;5.260;2022-12-04T02:17:40;102039.78;;;4.61;100.00
44765;BME280;30484;52.382;5.260;2022-12-04T02:20:22;102030.13;;;4.56;100.00
44765;BME280;30484;52.382;5.260;2022-12-04T02:23:27;102041.63;;;4.50;100.00
44765;BME280;30484;52.382;5.260;2022-12-04T02:26:18;102049.56;;;4.52;100.00
44765;BME280;30484;52.382;5.260;2022-12-04T02:29:00;102056.00;;;3.96;100.00
44765;BME280;30484;52.382;5.260;2022-12-04T02:31:35;102043.63;;;4.08;100.00
44765;BME280;30484;52.382;5.260;2022-12-04T02:34:15;102041.66;;;4.44;100.00
44765;BME280;30484;52.382;5.260;2022-12-04T02:36:58;102039.06;;;4.33;100.00
44765;BME280;30484;52.382;5.260;2022-12-04T02:39:36;102037.25;;;4.44;100.00
44765;BME280;30484;52.382;5.260;2022-12-04T02:42:11;102028.38;;;4.52;100.00
44765;BME280;30484;52.382;5.260;2022-12-04T02:44:48;102037.16;;;4.58;100.00
44765;BME280;30484;52.382;5.260;2022-12-04T02:47:22;102029.41;;;4.24;100.00
44765;BME280;30484;52.382;5.260;2022-12-04T02:49:58;102033.84;;;4.22;100.00
44765;BME280;30484;52.382;5.260;2022-12-04T02:52:31;102034.56;;;4.55;100.00
44765;BME280;30484;52.382;5.260;2022-12-04T02:55:06;102034.59;;;4.46;100.00
44765;BME280;30484;52.382;5.260;2022-12-04T02:57:41;102034.59;;;4.49;100.00
44765;BME280;30484;52.382;5.260;2022-12-04T03:00:17;102034.66;;;4.38;100.00
44765;BME280;30484;52.382;5.260;2022-12-04T03:02:51;102036.56;;;4.07;100.00
44765;BME280;30484;52.382;5.260;2022-12-04T03:05:25;102033.00;;;4.15;100.00
44765;BME280;30484;52.382;5.260;2022-12-04T03:07:59;102024.19;;;4.15;100.00
44765;BME280;30484;52.382;5.260;2022-12-04T03:10:38;102021.56;;;4.13;100.00
44765;BME280;30484;52.382;5.260;2022-12-04T03:13:16;102019.78;;;4.14;100.00
44765;BME280;30484;52.382;5.260;2022-12-04T03:15:52;102015.97;;;4.61;100.00
44765;BME280;30484;52.382;5.260;2022-12-04T03:18:27;102014.28;;;4.49;100.00
44765;BME280;30484;52.382;5.260;2022-12-04T03:21:02;102011.69;;;4.45;100.00
44765;BME280;30484;52.382;5.260;2022-12-04T03:23:34;102009.81;;;4.59;100.00
44765;BME280;30484;52.382;5.260;2022-12-04T03:26:12;102019.56;;;4.51;100.00
44765;BME280;30484;52.382;5.260;2022-12-04T03:28:50;102017.19;;;4.06;100.00
44765;BME280;30484;52.382;5.260;2022-12-04T03:31:29;102015.09;;;4.64;100.00
44765;BME280;30484;52.382;5.260;2022-12-04T03:34:05;102011.75;;;4.29;100.00
44765;BME280;30484;52.382;5.260;2022-12-04T03:36:38;102013.53;;;4.27;100.00
44765;BME280;30484;52.382;5.260;2022-12-04T03:39:19;102018.94;;;4.00;100.00
44765;BME280;30484;52.382;5.260;2022-12-04T03:41:56;102003.06;;;4.06;100.00
44765;BME280;30484;52.382;5.260;2022-12-04T03:44:36;102010.03;;;4.25;100.00
44765;BME280;30484;52.382;5.260;2022-12-04T03:47:12;102000.31;;;4.30;100.00
44765;BME280;30484;52.382;5.260;2022-12-04T03:49:52;101997.66;;;4.24;100.00
44765;BME280;30484;52.382;5.260;2022-12-04T03:52:28;101988.66;;;4.59;100.00
44765;BME280;30484;52.382;5.260;2022-12-04T03:55:05;101986.16;;;4.35;100.00
44765;BME280;30484;52.382;5.260;2022-12-04T03:57:38;101991.50;;;4.25;100.00
44765;BME280;30484;52.382;5.260;2022-12-04T04:00:13;101988.84;;;4.25;100.00
44765;BME280;30484;52.382;5.260;2022-12-04T04:02:47;101986.00;;;4.59;100.00
44765;BME280;30484;52.382;5.260;2022-12-04T04:05:19;101998.47;;;4.43;100.00
44765;BME280;30484;52.382;5.260;2022-12-04T04:07:52;101998.38;;;4.56;100.00
44765;BME280;30484;52.382;5.260;2022-12-04T04:10:24;101995.69;;;4.62;100.00
44765;BME280;30484;52.382;5.260;2022-12-04T04:12:57;102002.88;;;4.40;100.00
44765;BME280;30484;52.382;5.260;2022-12-04T04:15:49;101999.38;;;4.35;100.00
44765;BME280;30484;52.382;5.260;2022-12-04T04:18:41;102005.44;;;4.54;100.00
44765;BME280;30484;52.382;5.260;2022-12-04T04:21:32;101998.38;;;4.53;100.00
44765;BME280;30484;52.382;5.260;2022-12-04T04:24:29;101994.88;;;4.47;100.00
44765;BME280;30484;52.382;5.260;2022-12-04T04:27:03;102001.03;;;4.54;100.00
44765;BME280;30484;52.382;5.260;2022-12-04T04:29:33;102001.00;;;4.56;100.00
44765;BME280;30484;52.382;5.260;2022-12-04T04:32:10;101999.28;;;4.50;100.00
44765;BME280;30484;52.382;5.260;2022-12-04T04:34:49;102008.00;;;4.64;100.00
44765;BME280;30484;52.382;5.260;2022-12-04T04:37:28;102009.97;;;4.31;100.00
44765;BME280;30484;52.382;5.260;2022-12-04T04:40:06;102002.75;;;4.61;100.00
44765;BME280;30484;52.382;5.260;2022-12-04T04:42:43;102009.88;;;4.47;100.00
44765;BME280;30484;52.382;5.260;2022-12-04T04:45:19;102009.03;;;4.46;100.00
44765;BME280;30484;52.382;5.260;2022-12-04T04:47:53;102002.81;;;4.52;100.00
44765;BME280;30484;52.382;5.260;2022-12-04T04:50:24;102006.41;;;4.39;100.00
44765;BME280;30484;52.382;5.260;2022-12-04T04:52:58;102014.22;;;4.63;100.00
44765;BME280;30484;52.382;5.260;2022-12-04T04:55:29;102010.88;;;4.34;100.00
44765;BME280;30484;52.382;5.260;2022-12-04T04:58:14;102015.25;;;4.38;100.00
44765;BME280;30484;52.382;5.260;2022-12-04T05:00:49;102016.25;;;4.13;100.00
44765;BME280;30484;52.382;5.260;2022-12-04T05:03:24;102011.69;;;4.45;100.00
44765;BME280;30484;52.382;5.260;2022-12-04T05:05:55;102010.00;;;4.28;100.00
44765;BME280;30484;52.382;5.260;2022-12-04T05:08:27;102013.63;;;4.04;100.00
44765;BME280;30484;52.382;5.260;2022-12-04T05:10:55;102012.78;;;3.97;100.00
44765;BME280;30484;52.382;5.260;2022-12-04T05:13:28;102011.75;;;4.31;100.00
44765;BME280;30484;52.382;5.260;2022-12-04T05:15:58;102012.56;;;4.44;100.00
44765;BME280;30484;52.382;5.260;2022-12-04T05:18:31;102009.88;;;4.47;100.00
44765;BME280;30484;52.382;5.260;2022-12-04T05:21:05;102010.81;;;4.40;100.00
44765;BME280;30484;52.382;5.260;2022-12-04T05:23:34;102013.50;;;4.34;100.00
44765;BME280;30484;52.382;5.260;2022-12-04T05:26:04;102021.31;;;4.55;100.00
44765;BME280;30484;52.382;5.260;2022-12-04T05:28:33;102024.00;;;4.44;100.00
44765;BME280;30484;52.382;5.260;2022-12-04T05:31:03;102017.94;;;4.30;100.00
44765;BME280;30484;52.382;5.260;2022-12-04T05:33:32;102025.78;;;4.44;100.00
44765;BME280;30484;52.382;5.260;2022-12-04T05:36:03;102030.09;;;4.62;100.00
44765;BME280;30484;52.382;5.260;2022-12-04T05:38:35;102027.41;;;4.70;100.00
44765;BME280;30484;52.382;5.260;2022-12-04T05:41:11;102029.34;;;4.38;100.00
44765;BME280;30484;52.382;5.260;2022-12-04T05:43:42;102028.47;;;4.41;100.00
44765;BME280;30484;52.382;5.260;2022-12-04T05:46:13;102031.00;;;4.59;100.00
44765;BME280;30484;52.382;5.260;2022-12-04T05:48:44;102018.78;;;4.37;100.00
44765;BME280;30484;52.382;5.260;2022-12-04T05:51:13;102030.09;;;4.65;100.00
44765;BME280;30484;52.382;5.260;2022-12-04T05:53:43;102025.84;;;4.31;100.00
44765;BME280;30484;52.382;5.260;2022-12-04T05:56:14;102032.69;;;4.70;100.00
44765;BME280;30484;52.382;5.260;2022-12-04T05:58:53;102030.03;;;4.71;100.00
44765;BME280;30484;52.382;5.260;2022-12-04T06:01:29;102017.75;;;4.61;100.00
44765;BME280;30484;52.382;5.260;2022-12-04T06:04:02;102019.56;;;4.51;100.00
44765;BME280;30484;52.382;5.260;2022-12-04T06:06:35;102017.84;;;4.45;100.00
44765;BME280;30484;52.382;5.260;2022-12-04T06:09:11;102022.13;;;4.68;100.00
44765;BME280;30484;52.382;5.260;2022-12-04T06:11:42;102015.06;;;4.65;100.00
44765;BME280;30484;52.382;5.260;2022-12-04T06:14:15;102021.28;;;4.61;100.00
44765;BME280;30484;52.382;5.260;2022-12-04T06:16:51;102019.53;;;4.56;100.00
44765;BME280;30484;52.382;5.260;2022-12-04T06:19:22;102022.97;;;4.69;100.00
44765;BME280;30484;52.382;5.260;2022-12-04T06:21:53;102022.09;;;4.70;100.00
44765;BME280;30484;52.382;5.260;2022-12-04T06:24:24;102023.91;;;4.68;100.00
44765;BME280;30484;52.382;5.260;2022-12-04T06:26:56;102023.84;;;4.74;100.00
44765;BME280;30484;52.382;5.260;2022-12-04T06:29:53;102023.75;;;4.83;100.00
44765;BME280;30484;52.382;5.260;2022-12-04T06:32:27;102025.69;;;4.62;100.00
44765;BME280;30484;52.382;5.260;2022-12-04T06:34:58;102035.31;;;4.73;100.00
44765;BME280;30484;52.382;5.260;2022-12-04T06:37:29;102031.78;;;4.75;100.00
44765;BME280;30484;52.382;5.260;2022-12-04T06:40:00;102029.06;;;4.86;100.00
44765;BME280;30484;52.382;5.260;2022-12-04T06:42:30;102025.56;;;4.81;100.00
44765;BME280;30484;52.382;5.260;2022-12-04T06:44:59;102024.81;;;4.59;100.00
44765;BME280;30484;52.382;5.260;2022-12-04T06:47:30;102028.19;;;4.82;100.00
44765;BME280;30484;52.382;5.260;2022-12-04T06:49:59;102033.53;;;4.78;100.00
44765;BME280;30484;52.382;5.260;2022-12-04T06:52:32;102022.09;;;4.70;100.00
44765;BME280;30484;52.382;5.260;2022-12-04T06:55:03;102030.06;;;4.66;100.00
44765;BME280;30484;52.382;5.260;2022-12-04T06:57:32;102032.66;;;4.74;100.00
44765;BME280;30484;52.382;5.260;2022-12-04T07:00:07;102039.78;;;4.64;100.00
44765;BME280;30484;52.382;5.260;2022-12-04T07:02:39;102032.75;;;4.63;100.00
44765;BME280;30484;52.382;5.260;2022-12-04T07:05:08;102034.59;;;4.44;100.00
44765;BME280;30484;52.382;5.260;2022-12-04T07:07:38;102037.16;;;4.60;100.00
44765;BME280;30484;52.382;5.260;2022-12-04T07:10:11;102031.94;;;4.51;100.00
44765;BME280;30484;52.382;5.260;2022-12-04T07:12:41;102040.72;;;4.56;100.00
44765;BME280;30484;52.382;5.260;2022-12-04T07:15:14;102031.97;;;4.43;100.00
44765;BME280;30484;52.382;5.260;2022-12-04T07:17:42;102036.41;;;4.35;100.00
44765;BME280;30484;52.382;5.260;2022-12-04T07:20:13;102031.19;;;4.25;100.00
44765;BME280;30484;52.382;5.260;2022-12-04T07:22:49;102031.78;;;4.72;100.00
44765;BME280;30484;52.382;5.260;2022-12-04T07:25:43;102033.59;;;4.67;100.00
44765;BME280;30484;52.382;5.260;2022-12-04T07:28:18;102038.13;;;4.48;100.00
44765;BME280;30484;52.382;5.260;2022-12-04T07:30:54;102029.19;;;4.69;100.00
44765;BME280;30484;52.382;5.260;2022-12-04T07:33:23;102040.84;;;4.31;100.00
44765;BME280;30484;52.382;5.260;2022-12-04T07:35:56;102038.13;;;4.49;100.00
44765;BME280;30484;52.382;5.260;2022-12-04T07:38:25;102040.69;;;4.59;100.00
44765;BME280;30484;52.382;5.260;2022-12-04T07:40:57;102035.38;;;4.63;100.00
44765;BME280;30484;52.382;5.260;2022-12-04T07:43:29;102033.56;;;4.73;100.00
44765;BME280;30484;52.382;5.260;2022-12-04T07:46:03;102043.38;;;4.54;100.00
44765;BME280;30484;52.382;5.260;2022-12-04T07:48:33;102039.88;;;4.46;100.00
44765;BME280;30484;52.382;5.260;2022-12-04T07:51:03;102035.41;;;4.62;100.00
44765;BME280;30484;52.382;5.260;2022-12-04T07:53:33;102038.06;;;4.54;100.00
44765;BME280;30484;52.382;5.260;2022-12-04T07:56:06;102031.81;;;4.69;100.00
44765;BME280;30484;52.382;5.260;2022-12-04T07:58:35;102038.16;;;4.40;100.00
44765;BME280;30484;52.382;5.260;2022-12-04T08:01:07;102045.16;;;4.54;100.00
44765;BME280;30484;52.382;5.260;2022-12-04T08:03:37;102046.00;;;4.60;100.00
44765;BME280;30484;52.382;5.260;2022-12-04T08:06:15;102048.66;;;4.54;100.00
44765;BME280;30484;52.382;5.260;2022-12-04T08:08:47;102048.81;;;4.22;100.00
44765;BME280;30484;52.382;5.260;2022-12-04T08:11:22;102048.66;;;4.54;100.00
44765;BME280;30484;52.382;5.260;2022-12-04T08:13:53;102046.84;;;4.65;100.00
44765;BME280;30484;52.382;5.260;2022-12-04T08:16:22;102053.22;;;4.30;100.00
44765;BME280;30484;52.382;5.260;2022-12-04T08:18:53;102064.53;;;4.60;100.00
44765;BME280;30484;52.382;5.260;2022-12-04T08:21:25;102058.47;;;4.38;100.00
44765;BME280;30484;52.382;5.260;2022-12-04T08:23:56;102057.53;;;4.44;100.00
44765;BME280;30484;52.382;5.260;2022-12-04T08:26:30;102058.47;;;4.38;100.00
44765;BME280;30484;52.382;5.260;2022-12-04T08:29:01;102067.28;;;4.34;100.00
44765;BME280;30484;52.382;5.260;2022-12-04T08:31:32;102063.72;;;4.43;100.00
44765;BME280;30484;52.382;5.260;2022-12-04T08:34:04;102073.44;;;4.35;100.00
44765;BME280;30484;52.382;5.260;2022-12-04T08:36:34;102069.81;;;4.57;100.00
44765;BME280;30484;52.382;5.260;2022-12-04T08:39:03;102072.63;;;4.20;100.00
44765;BME280;30484;52.382;5.260;2022-12-04T08:41:35;102069.78;;;4.66;100.00
44765;BME280;30484;52.382;5.260;2022-12-04T08:44:05;102076.81;;;4.71;100.00
44765;BME280;30484;52.382;5.260;2022-12-04T08:46:37;102075.13;;;4.54;100.00
44765;BME280;30484;52.382;5.260;2022-12-04T08:49:06;102076.88;;;4.60;100.00
44765;BME280;30484;52.382;5.260;2022-12-04T08:51:35;102080.44;;;4.51;100.00
44765;BME280;30484;52.382;5.260;2022-12-04T08:54:07;102083.00;;;4.66;100.00
44765;BME280;30484;52.382;5.260;2022-12-04T08:56:39;102074.09;;;4.81;100.00
44765;BME280;30484;52.382;5.260;2022-12-04T08:59:11;102082.94;;;4.82;100.00
44765;BME280;30484;52.382;5.260;2022-12-04T09:01:41;102086.66;;;4.42;100.00
44765;BME280;30484;52.382;5.260;2022-12-04T09:04:13;102085.72;;;4.54;100.00
44765;BME280;30484;52.382;5.260;2022-12-04T09:06:42;102084.84;;;4.54;100.00
44765;BME280;30484;52.382;5.260;2022-12-04T09:09:11;102085.84;;;4.26;100.00
44765;BME280;30484;52.382;5.260;2022-12-04T09:11:45;102083.94;;;4.59;100.00
44765;BME280;30484;52.382;5.260;2022-12-04T09:14:17;102083.88;;;4.69;100.00
44765;BME280;30484;52.382;5.260;2022-12-04T09:16:52;102082.91;;;4.85;100.00
44765;BME280;30484;52.382;5.260;2022-12-04T09:19:21;102089.22;;;4.59;100.00
44765;BME280;30484;52.382;5.260;2022-12-04T09:21:49;102089.09;;;4.81;100.00
44765;BME280;30484;52.382;5.260;2022-12-04T09:24:18;102091.75;;;4.81;100.00
44765;BME280;30484;52.382;5.260;2022-12-04T09:26:51;102102.47;;;4.53;100.00
44765;BME280;30484;52.382;5.260;2022-12-04T09:29:21;102090.88;;;4.80;100.00
44765;BME280;30484;52.382;5.260;2022-12-04T09:31:52;102089.88;;;4.97;100.00
44765;BME280;30484;52.382;5.260;2022-12-04T09:34:21;102088.16;;;4.88;100.00
44765;BME280;30484;52.382;5.260;2022-12-04T09:36:50;102093.53;;;4.82;100.00
44765;BME280;30484;52.382;5.260;2022-12-04T09:39:19;102094.50;;;4.64;100.00
44765;BME280;30484;52.382;5.260;2022-12-04T09:42:07;102088.28;;;4.68;100.00
44765;BME280;30484;52.382;5.260;2022-12-04T09:44:42;102090.88;;;4.76;100.00
44765;BME280;30484;52.382;5.260;2022-12-04T09:47:20;102096.13;;;4.88;100.00
44765;BME280;30484;52.382;5.260;2022-12-04T09:49:54;102092.63;;;4.80;100.00
44765;BME280;30484;52.382;5.260;2022-12-04T09:52:43;102091.88;;;4.59;100.00
44765;BME280;30484;52.382;5.260;2022-12-04T09:55:19;102099.59;;;4.98;100.00
44765;BME280;30484;52.382;5.260;2022-12-04T09:57:54;102092.63;;;4.78;100.00
44765;BME280;30484;52.382;5.260;2022-12-04T10:00:30;102089.16;;;4.73;100.00
44765;BME280;30484;52.382;5.260;2022-12-04T10:03:02;102083.75;;;4.87;100.00
44765;BME280;30484;52.382;5.260;2022-12-04T10:05:47;102083.03;;;4.63;100.00
44765;BME280;30484;52.382;5.260;2022-12-04T10:08:21;102071.53;;;4.68;100.00
44765;BME280;30484;52.382;5.260;2022-12-04T10:11:02;102071.28;;;5.08;100.00
44765;BME280;30484;52.382;5.260;2022-12-04T10:14:04;102074.88;;;4.94;100.00
44765;BME280;30484;52.382;5.260;2022-12-04T10:16:50;102072.22;;;5.00;100.00
44765;BME280;30484;52.382;5.260;2022-12-04T10:19:30;102072.44;;;4.66;100.00
44765;BME280;30484;52.382;5.260;2022-12-04T10:22:10;102068.88;;;4.71;100.00
44765;BME280;30484;52.382;5.260;2022-12-04T10:24:44;102071.22;;;5.12;100.00
44765;BME280;30484;52.382;5.260;2022-12-04T10:27:20;102068.75;;;4.91;100.00
44765;BME280;30484;52.382;5.260;2022-12-04T10:29:57;102074.88;;;4.97;100.00
44765;BME280;30484;52.382;5.260;2022-12-04T10:32:31;102068.66;;;5.00;100.00
44765;BME280;30484;52.382;5.260;2022-12-04T10:35:14;102067.97;;;4.75;100.00
44765;BME280;30484;52.382;5.260;2022-12-04T10:37:47;102063.19;;;5.20;100.00
44765;BME280;30484;52.382;5.260;2022-12-04T10:40:21;102067.84;;;4.93;100.00
44765;BME280;30484;52.382;5.260;2022-12-04T10:42:59;102065.34;;;4.69;100.00
44765;BME280;30484;52.382;5.260;2022-12-04T10:45:32;102062.69;;;4.69;100.00
44765;BME280;30484;52.382;5.260;2022-12-04T10:48:01;102059.88;;;4.95;100.00
44765;BME280;30484;52.382;5.260;2022-12-04T10:50:30;102064.09;;;5.22;100.00
44765;BME280;30484;52.382;5.260;2022-12-04T10:53:01;102065.31;;;4.78;100.00
44765;BME280;30484;52.382;5.260;2022-12-04T10:55:33;102054.72;;;4.78;100.00
44765;BME280;30484;52.382;5.260;2022-12-04T10:58:15;102063.53;;;4.77;100.00
44765;BME280;30484;52.382;5.260;2022-12-04T11:01:01;102063.59;;;4.63;100.00
44765;BME280;30484;52.382;5.260;2022-12-04T11:03:46;102059.06;;;4.87;100.00
44765;BME280;30484;52.382;5.260;2022-12-04T11:06:24;102050.97;;;5.07;100.00
44765;BME280;30484;52.382;5.260;2022-12-04T11:08:55;102060.69;;;5.08;100.00
44765;BME280;30484;52.382;5.260;2022-12-04T11:11:27;102051.03;;;4.94;100.00
44765;BME280;30484;52.382;5.260;2022-12-04T11:14:06;102044.94;;;4.83;100.00
44765;BME280;30484;52.382;5.260;2022-12-04T11:16:39;102037.72;;;5.07;100.00
44765;BME280;30484;52.382;5.260;2022-12-04T11:19:23;102032.66;;;4.73;100.00
44765;BME280;30484;52.382;5.260;2022-12-04T11:21:53;102027.16;;;5.04;100.00
44765;BME280;30484;52.382;5.260;2022-12-04T11:24:28;102042.56;;;4.41;100.00
44765;BME280;30484;52.382;5.260;2022-12-04T11:26:58;102030.91;;;4.70;100.00
44765;BME280;30484;52.382;5.260;2022-12-04T11:29:31;102023.44;;;5.26;100.00
44765;BME280;30484;52.382;5.260;2022-12-04T11:32:03;102027.72;;;5.38;100.00
44765;BME280;30484;52.382;5.260;2022-12-04T11:34:37;102027.22;;;4.94;100.00
44765;BME280;30484;52.382;5.260;2022-12-04T11:37:19;102022.84;;;4.87;100.00
44765;BME280;30484;52.382;5.260;2022-12-04T11:39:51;102024.47;;;5.05;100.00
44765;BME280;30484;52.382;5.260;2022-12-04T11:42:24;102028.09;;;4.95;100.00
44765;BME280;30484;52.382;5.260;2022-12-04T11:44:57;102022.81;;;4.90;100.00
44765;BME280;30484;52.382;5.260;2022-12-04T11:47:31;102021.81;;;5.07;100.00
44765;BME280;30484;52.382;5.260;2022-12-04T11:50:17;102025.44;;;4.98;100.00
44765;BME280;30484;52.382;5.260;2022-12-04T11:53:03;102029.81;;;5.02;100.00
44765;BME280;30484;52.382;5.260;2022-12-04T11:55:49;102032.44;;;5.04;100.00
44765;BME280;30484;52.382;5.260;2022-12-04T11:58:40;102033.31;;;5.06;100.00
44765;BME280;30484;52.382;5.260;2022-12-04T12:01:26;102031.72;;;4.83;100.00
44765;BME280;30484;52.382;5.260;2022-12-04T12:04:39;102013.53;;;4.27;100.00
44765;BME280;30484;52.382;5.260;2022-12-04T12:07:34;102011.16;;;5.17;100.00
44765;BME280;30484;52.382;5.260;2022-12-04T12:10:16;102005.88;;;5.13;100.00
44765;BME280;30484;52.382;5.260;2022-12-04T12:12:59;102003.22;;;5.11;100.00
44765;BME280;30484;52.382;5.260;2022-12-04T12:15:40;101983.56;;;5.37;100.00
44765;BME280;30484;52.382;5.260;2022-12-04T12:18:37;101995.19;;;5.22;100.00
44765;BME280;30484;52.382;5.260;2022-12-04T12:21:18;101986.25;;;5.34;100.00
44765;BME280;30484;52.382;5.260;2022-12-04T12:24:11;101988.09;;;5.26;100.00
44765;BME280;30484;52.382;5.260;2022-12-04T12:27:03;101985.75;;;4.93;100.00
44765;BME280;30484;52.382;5.260;2022-12-04T12:29:49;101987.03;;;5.44;100.00
44765;BME280;30484;52.382;5.260;2022-12-04T12:33:03;101986.50;;;5.08;100.00
44765;BME280;30484;52.382;5.260;2022-12-04T12:35:42;101984.66;;;5.16;100.00
44765;BME280;30484;52.382;5.260;2022-12-04T12:38:18;101976.94;;;4.88;100.00
44765;BME280;30484;52.382;5.260;2022-12-04T12:40:56;101984.75;;;5.07;100.00
44765;BME280;30484;52.382;5.260;2022-12-04T12:43:30;101983.53;;;5.42;100.00
44765;BME280;30484;52.382;5.260;2022-12-04T12:46:06;101975.47;;;5.49;100.00
44765;BME280;30484;52.382;5.260;2022-12-04T12:48:45;101977.50;;;5.27;100.00
44765;BME280;30484;52.382;5.260;2022-12-04T12:51:33;101971.94;;;5.52;100.00
44765;BME280;30484;52.382;5.260;2022-12-04T12:54:17;101979.19;;;5.34;100.00
44765;BME280;30484;52.382;5.260;2022-12-04T12:56:56;101973.06;;;5.29;100.00
44765;BME280;30484;52.382;5.260;2022-12-04T12:59:31;101972.81;;;5.51;100.00
44765;BME280;30484;52.382;5.260;2022-12-04T13:02:06;101966.81;;;5.33;100.00
44765;BME280;30484;52.382;5.260;2022-12-04T13:04:42;101967.22;;;4.89;100.00
44765;BME280;30484;52.382;5.260;2022-12-04T13:07:26;101954.78;;;4.98;100.00
44765;BME280;30484;52.382;5.260;2022-12-04T13:10:12;101961.44;;;5.41;100.00
44765;BME280;30484;52.382;5.260;2022-12-04T13:12:53;101961.72;;;5.15;100.00
44765;BME280;30484;52.382;5.260;2022-12-04T13:15:34;101964.50;;;4.98;100.00
44765;BME280;30484;52.382;5.260;2022-12-04T13:18:22;101964.09;;;5.40;100.00
44765;BME280;30484;52.382;5.260;2022-12-04T13:20:58;101960.53;;;5.42;100.00
44765;BME280;30484;52.382;5.260;2022-12-04T13:23:45;101962.16;;;5.54;100.00
44765;BME280;30484;52.382;5.260;2022-12-04T13:26:35;101963.13;;;5.47;100.00
44765;BME280;30484;52.382;5.260;2022-12-04T13:29:43;101965.13;;;5.26;100.00
44765;BME280;30484;52.382;5.260;2022-12-04T13:32:41;101957.50;;;5.76;100.00